sensor_id;sensor_type;location;lat;lon;timestamp;pressure;altitude;pressure_sealevel;temperature;humidity
59103;BME280;43999;51.660;5.616;2023-10-31T00:02:35;99422.72;;;8.94;100.00
59103;BME280;43999;51.660;5.616;2023-10-31T00:05:24;99433.19;;;8.94;100.00
59103;BME280;43999;51.660;5.616;2023-10-31T00:08:12;99442.56;;;8.96;100.00
59103;BME280;43999;51.660;5.616;2023-10-31T00:11:00;99449.47;;;8.97;100.00
59103;BME280;43999;51.660;5.616;2023-10-31T00:13:48;99454.69;;;8.97;100.00
59103;BME280;43999;51.660;5.616;2023-10-31T00:16:36;99458.13;;;8.98;100.00
59103;BME280;43999;51.660;5.616;2023-10-31T00:19:24;99476.41;;;8.98;100.00
59103;BME280;43999;51.660;5.616;2023-10-31T00:22:15;99472.97;;;8.97;100.00
59103;BME280;43999;51.660;5.616;2023-10-31T00:25:03;99466.94;;;8.97;100.00
59103;BME280;43999;51.660;5.616;2023-10-31T00:27:51;99468.59;;;8.98;100.00
59103;BME280;43999;51.660;5.616;2023-10-31T00:30:39;99464.22;;;8.99;100.00
59103;BME280;43999;51.660;5.616;2023-10-31T00:33:29;99477.88;;;9.02;100.00
59103;BME280;43999;51.660;5.616;2023-10-31T00:36:17;99468.38;;;9.01;100.00
59103;BME280;43999;51.660;5.616;2023-10-31T00:39:05;99479.56;;;9.03;100.00
59103;BME280;43999;51.660;5.616;2023-10-31T00:41:53;99485.50;;;9.05;100.00
59103;BME280;43999;51.660;5.616;2023-10-31T00:44:41;99486.03;;;9.10;100.00
59103;BME280;43999;51.660;5.616;2023-10-31T00:47:30;99487.59;;;9.13;100.00
59103;BME280;43999;51.660;5.616;2023-10-31T00:50:19;99497.00;;;9.15;100.00
59103;BME280;43999;51.660;5.616;2023-10-31T00:53:08;99487.59;;;9.13;100.00
59103;BME280;43999;51.660;5.616;2023-10-31T00:55:57;99494.72;;;9.11;100.00
59103;BME280;43999;51.660;5.616;2023-10-31T00:58:45;99489.28;;;9.14;100.00
59103;BME280;43999;51.660;5.616;2023-10-31T01:01:33;99503.16;;;9.14;100.00
59103;BME280;43999;51.660;5.616;2023-10-31T01:04:21;99502.25;;;9.15;100.00
59103;BME280;43999;51.660;5.616;2023-10-31T01:07:09;99504.84;;;9.15;100.00
59103;BME280;43999;51.660;5.616;2023-10-31T01:10:01;99508.41;;;9.14;100.00
59103;BME280;43999;51.660;5.616;2023-10-31T01:12:49;99510.28;;;9.12;100.00
59103;BME280;43999;51.660;5.616;2023-10-31T01:15:38;99511.22;;;9.11;100.00
59103;BME280;43999;51.660;5.616;2023-10-31T01:18:26;99510.28;;;9.12;100.00
59103;BME280;43999;51.660;5.616;2023-10-31T01:21:14;99519.78;;;9.13;100.00
59103;BME280;43999;51.660;5.616;2023-10-31T01:24:02;99522.41;;;9.13;100.00
59103;BME280;43999;51.660;5.616;2023-10-31T01:26:50;99525.75;;;9.15;100.00
59103;BME280;43999;51.660;5.616;2023-10-31T01:29:38;99530.88;;;9.17;100.00
59103;BME280;43999;51.660;5.616;2023-10-31T01:32:26;99531.59;;;9.19;100.00
59103;BME280;43999;51.660;5.616;2023-10-31T01:35:16;99528.88;;;9.21;100.00
59103;BME280;43999;51.660;5.616;2023-10-31T01:38:04;99530.66;;;9.20;100.00
59103;BME280;43999;51.660;5.616;2023-10-31T01:40:53;99534.81;;;9.23;100.00
59103;BME280;43999;51.660;5.616;2023-10-31T01:43:42;99540.66;;;9.26;100.00
59103;BME280;43999;51.660;5.616;2023-10-31T01:46:34;99535.53;;;9.25;100.00
59103;BME280;43999;51.660;5.616;2023-10-31T01:49:23;99542.56;;;9.24;100.00
59103;BME280;43999;51.660;5.616;2023-10-31T01:52:15;99544.16;;;9.27;100.00
59103;BME280;43999;51.660;5.616;2023-10-31T01:55:07;99537.22;;;9.26;100.00
59103;BME280;43999;51.660;5.616;2023-10-31T01:57:55;99536.19;;;9.28;100.00
59103;BME280;43999;51.660;5.616;2023-10-31T02:00:45;99533.59;;;9.28;100.00
59103;BME280;43999;51.660;5.616;2023-10-31T02:03:35;99537.84;;;9.29;100.00
59103;BME280;43999;51.660;5.616;2023-10-31T02:06:23;99541.22;;;9.31;100.00
59103;BME280;43999;51.660;5.616;2023-10-31T02:09:14;99547.25;;;9.32;100.00
59103;BME280;43999;51.660;5.616;2023-10-31T02:12:02;99543.72;;;9.33;100.00
59103;BME280;43999;51.660;5.616;2023-10-31T02:14:50;99540.13;;;9.34;100.00
59103;BME280;43999;51.660;5.616;2023-10-31T02:17:40;99551.66;;;9.31;100.00
59103;BME280;43999;51.660;5.616;2023-10-31T02:20:29;99538.91;;;9.27;100.00
59103;BME280;43999;51.660;5.616;2023-10-31T02:23:17;99540.56;;;9.28;100.00
59103;BME280;43999;51.660;5.616;2023-10-31T02:26:05;99529.50;;;9.24;100.00
59103;BME280;43999;51.660;5.616;2023-10-31T02:28:55;99536.31;;;9.27;100.00
59103;BME280;43999;51.660;5.616;2023-10-31T02:31:43;99532.72;;;9.28;100.00
59103;BME280;43999;51.660;5.616;2023-10-31T02:34:31;99532.72;;;9.28;100.00
59103;BME280;43999;51.660;5.616;2023-10-31T02:37:19;99538.81;;;9.28;100.00
59103;BME280;43999;51.660;5.616;2023-10-31T02:40:13;99531.78;;;9.29;100.00
59103;BME280;43999;51.660;5.616;2023-10-31T02:43:01;99536.31;;;9.27;100.00
59103;BME280;43999;51.660;5.616;2023-10-31T02:45:50;99535.34;;;9.28;100.00
59103;BME280;43999;51.660;5.616;2023-10-31T02:48:38;99547.47;;;9.29;100.00
59103;BME280;43999;51.660;5.616;2023-10-31T02:51:29;99542.25;;;9.29;100.00
59103;BME280;43999;51.660;5.616;2023-10-31T02:54:17;99554.28;;;9.31;100.00
59103;BME280;43999;51.660;5.616;2023-10-31T02:57:05;99569.00;;;9.32;100.00
59103;BME280;43999;51.660;5.616;2023-10-31T02:59:53;99559.50;;;9.31;100.00
59103;BME280;43999;51.660;5.616;2023-10-31T03:02:41;99562.94;;;9.32;100.00
59103;BME280;43999;51.660;5.616;2023-10-31T03:05:30;99562.75;;;9.35;100.00
59103;BME280;43999;51.660;5.616;2023-10-31T03:08:18;99562.84;;;9.33;100.00
59103;BME280;43999;51.660;5.616;2023-10-31T03:11:08;99560.34;;;9.32;100.00
59103;BME280;43999;51.660;5.616;2023-10-31T03:13:56;99571.50;;;9.34;100.00
59103;BME280;43999;51.660;5.616;2023-10-31T03:16:44;99576.53;;;9.37;100.00
59103;BME280;43999;51.660;5.616;2023-10-31T03:19:32;99575.69;;;9.37;100.00
59103;BME280;43999;51.660;5.616;2023-10-31T03:22:20;99582.72;;;9.36;100.00
59103;BME280;43999;51.660;5.616;2023-10-31T03:25:08;99579.13;;;9.37;100.00
59103;BME280;43999;51.660;5.616;2023-10-31T03:27:57;99583.53;;;9.37;100.00
59103;BME280;43999;51.660;5.616;2023-10-31T03:30:48;99587.84;;;9.38;100.00
59103;BME280;43999;51.660;5.616;2023-10-31T03:33:36;99589.50;;;9.39;100.00
59103;BME280;43999;51.660;5.616;2023-10-31T03:36:25;99598.31;;;9.38;100.00
59103;BME280;43999;51.660;5.616;2023-10-31T03:39:13;99605.19;;;9.39;100.00
59103;BME280;43999;51.660;5.616;2023-10-31T03:42:01;99604.25;;;9.40;100.00
59103;BME280;43999;51.660;5.616;2023-10-31T03:44:49;99615.53;;;9.40;100.00
59103;BME280;43999;51.660;5.616;2023-10-31T03:47:38;99608.53;;;9.41;100.00
59103;BME280;43999;51.660;5.616;2023-10-31T03:50:26;99613.03;;;9.39;100.00
59103;BME280;43999;51.660;5.616;2023-10-31T03:53:16;99618.16;;;9.40;100.00
59103;BME280;43999;51.660;5.616;2023-10-31T03:56:05;99617.53;;;9.37;100.00
59103;BME280;43999;51.660;5.616;2023-10-31T03:58:55;99627.06;;;9.38;100.00
59103;BME280;43999;51.660;5.616;2023-10-31T04:01:43;99627.88;;;9.38;100.00
59103;BME280;43999;51.660;5.616;2023-10-31T04:04:31;99636.75;;;9.36;100.00
59103;BME280;43999;51.660;5.616;2023-10-31T04:07:19;99635.00;;;9.36;100.00
59103;BME280;43999;51.660;5.616;2023-10-31T04:10:07;99640.22;;;9.36;100.00
59103;BME280;43999;51.660;5.616;2023-10-31T04:12:55;99640.22;;;9.36;100.00
59103;BME280;43999;51.660;5.616;2023-10-31T04:15:44;99642.00;;;9.36;100.00
59103;BME280;43999;51.660;5.616;2023-10-31T04:18:31;99640.44;;;9.33;100.00
59103;BME280;43999;51.660;5.616;2023-10-31T04:21:19;99649.84;;;9.36;100.00
59103;BME280;43999;51.660;5.616;2023-10-31T04:24:07;99649.13;;;9.33;100.00
59103;BME280;43999;51.660;5.616;2023-10-31T04:26:55;99645.66;;;9.33;100.00
59103;BME280;43999;51.660;5.616;2023-10-31T04:29:44;99653.41;;;9.35;100.00
59103;BME280;43999;51.660;5.616;2023-10-31T04:32:32;99654.97;;;9.37;100.00
59103;BME280;43999;51.660;5.616;2023-10-31T04:35:20;99661.97;;;9.37;100.00
59103;BME280;43999;51.660;5.616;2023-10-31T04:38:08;99660.94;;;9.39;100.00
59103;BME280;43999;51.660;5.616;2023-10-31T04:40:56;99663.66;;;9.38;100.00
59103;BME280;43999;51.660;5.616;2023-10-31T04:43:44;99661.03;;;9.38;100.00
59103;BME280;43999;51.660;5.616;2023-10-31T04:46:32;99666.88;;;9.41;100.00
59103;BME280;43999;51.660;5.616;2023-10-31T04:49:20;99669.72;;;9.38;100.00
59103;BME280;43999;51.660;5.616;2023-10-31T04:52:08;99677.44;;;9.40;100.00
59103;BME280;43999;51.660;5.616;2023-10-31T04:54:56;99682.69;;;9.40;100.00
59103;BME280;43999;51.660;5.616;2023-10-31T04:57:44;99686.22;;;9.39;100.00
59103;BME280;43999;51.660;5.616;2023-10-31T05:00:33;99689.59;;;9.41;100.00
59103;BME280;43999;51.660;5.616;2023-10-31T05:03:21;99688.75;;;9.40;100.00
59103;BME280;43999;51.660;5.616;2023-10-31T05:06:09;99693.97;;;9.40;100.00
59103;BME280;43999;51.660;5.616;2023-10-31T05:08:58;99696.38;;;9.43;100.00
59103;BME280;43999;51.660;5.616;2023-10-31T05:11:46;99696.59;;;9.40;100.00
59103;BME280;43999;51.660;5.616;2023-10-31T05:14:34;99700.16;;;9.39;100.00
59103;BME280;43999;51.660;5.616;2023-10-31T05:17:22;99701.81;;;9.40;100.00
59103;BME280;43999;51.660;5.616;2023-10-31T05:20:10;99710.50;;;9.41;100.00
59103;BME280;43999;51.660;5.616;2023-10-31T05:22:59;99707.16;;;9.39;100.00
59103;BME280;43999;51.660;5.616;2023-10-31T05:25:47;99710.81;;;9.36;100.00
59103;BME280;43999;51.660;5.616;2023-10-31T05:28:35;99711.66;;;9.37;100.00
59103;BME280;43999;51.660;5.616;2023-10-31T05:31:24;99710.06;;;9.34;100.00
59103;BME280;43999;51.660;5.616;2023-10-31T05:34:12;99708.31;;;9.35;100.00
59103;BME280;43999;51.660;5.616;2023-10-31T05:37:00;99707.34;;;9.36;100.00
59103;BME280;43999;51.660;5.616;2023-10-31T05:39:49;99716.06;;;9.36;100.00
59103;BME280;43999;51.660;5.616;2023-10-31T05:42:36;99715.50;;;9.31;100.00
59103;BME280;43999;51.660;5.616;2023-10-31T05:45:26;99723.34;;;9.31;100.00
59103;BME280;43999;51.660;5.616;2023-10-31T05:48:14;99731.28;;;9.29;100.00
59103;BME280;43999;51.660;5.616;2023-10-31T05:51:02;99738.19;;;9.30;100.00
59103;BME280;43999;51.660;5.616;2023-10-31T05:53:50;99743.31;;;9.32;100.00
59103;BME280;43999;51.660;5.616;2023-10-31T05:56:38;99741.84;;;9.28;100.00
59103;BME280;43999;51.660;5.616;2023-10-31T05:59:26;99751.16;;;9.32;100.00
59103;BME280;43999;51.660;5.616;2023-10-31T06:02:15;99753.06;;;9.30;100.00
59103;BME280;43999;51.660;5.616;2023-10-31T06:05:03;99750.53;;;9.28;100.00
59103;BME280;43999;51.660;5.616;2023-10-31T06:07:58;99764.34;;;9.30;100.00
59103;BME280;43999;51.660;5.616;2023-10-31T06:10:51;99767.88;;;9.29;100.00
59103;BME280;43999;51.660;5.616;2023-10-31T06:13:39;99776.69;;;9.28;100.00
59103;BME280;43999;51.660;5.616;2023-10-31T06:16:27;99764.66;;;9.26;100.00
59103;BME280;43999;51.660;5.616;2023-10-31T06:19:15;99776.69;;;9.28;100.00
59103;BME280;43999;51.660;5.616;2023-10-31T06:22:03;99788.69;;;9.31;100.00
59103;BME280;43999;51.660;5.616;2023-10-31T06:24:51;99783.56;;;9.29;100.00
59103;BME280;43999;51.660;5.616;2023-10-31T06:27:39;99783.78;;;9.26;100.00
59103;BME280;43999;51.660;5.616;2023-10-31T06:30:27;99801.88;;;9.29;100.00
59103;BME280;43999;51.660;5.616;2023-10-31T06:33:16;99802.81;;;9.28;100.00
59103;BME280;43999;51.660;5.616;2023-10-31T06:36:04;99806.28;;;9.29;100.00
59103;BME280;43999;51.660;5.616;2023-10-31T06:38:55;99820.94;;;9.31;100.00
59103;BME280;43999;51.660;5.616;2023-10-31T06:41:44;99808.78;;;9.30;100.00
59103;BME280;43999;51.660;5.616;2023-10-31T06:44:32;99818.41;;;9.30;100.00
59103;BME280;43999;51.660;5.616;2023-10-31T06:47:20;99812.31;;;9.29;100.00
59103;BME280;43999;51.660;5.616;2023-10-31T06:50:08;99818.50;;;9.28;100.00
59103;BME280;43999;51.660;5.616;2023-10-31T06:52:57;99813.38;;;9.27;100.00
59103;BME280;43999;51.660;5.616;2023-10-31T06:55:45;99826.56;;;9.25;100.00
59103;BME280;43999;51.660;5.616;2023-10-31T06:58:33;99825.06;;;9.21;100.00
59103;BME280;43999;51.660;5.616;2023-10-31T07:01:21;99827.03;;;9.18;100.00
59103;BME280;43999;51.660;5.616;2023-10-31T07:04:09;99835.09;;;9.14;100.00
59103;BME280;43999;51.660;5.616;2023-10-31T07:06:57;99832.56;;;9.13;100.00
59103;BME280;43999;51.660;5.616;2023-10-31T07:09:45;99841.25;;;9.13;100.00
59103;BME280;43999;51.660;5.616;2023-10-31T07:12:33;99841.03;;;9.17;100.00
59103;BME280;43999;51.660;5.616;2023-10-31T07:15:21;99830.78;;;9.13;100.00
59103;BME280;43999;51.660;5.616;2023-10-31T07:18:09;99833.28;;;9.15;100.00
59103;BME280;43999;51.660;5.616;2023-10-31T07:20:57;99829.84;;;9.14;100.00
59103;BME280;43999;51.660;5.616;2023-10-31T07:23:45;99841.13;;;9.15;100.00
59103;BME280;43999;51.660;5.616;2023-10-31T07:26:33;99837.88;;;9.11;100.00
59103;BME280;43999;51.660;5.616;2023-10-31T07:29:21;99845.53;;;9.14;100.00
59103;BME280;43999;51.660;5.616;2023-10-31T07:32:09;99848.97;;;9.15;100.00
59103;BME280;43999;51.660;5.616;2023-10-31T07:34:58;99841.34;;;9.12;100.00
59103;BME280;43999;51.660;5.616;2023-10-31T07:37:47;99840.41;;;9.13;100.00
59103;BME280;43999;51.660;5.616;2023-10-31T07:40:35;99843.03;;;9.13;100.00
59103;BME280;43999;51.660;5.616;2023-10-31T07:43:23;99844.91;;;9.11;100.00
59103;BME280;43999;51.660;5.616;2023-10-31T07:46:11;99852.66;;;9.12;100.00
59103;BME280;43999;51.660;5.616;2023-10-31T07:48:59;99850.88;;;9.13;100.00
59103;BME280;43999;51.660;5.616;2023-10-31T07:51:48;99849.19;;;9.12;100.00
59103;BME280;43999;51.660;5.616;2023-10-31T07:54:39;99857.00;;;9.12;100.00
59103;BME280;43999;51.660;5.616;2023-10-31T07:57:28;99854.41;;;9.12;100.00
59103;BME280;43999;51.660;5.616;2023-10-31T08:00:16;99864.75;;;9.13;100.00
59103;BME280;43999;51.660;5.616;2023-10-31T08:03:04;99856.91;;;9.13;100.00
59103;BME280;43999;51.660;5.616;2023-10-31T08:05:52;99874.09;;;9.18;100.00
59103;BME280;43999;51.660;5.616;2023-10-31T08:08:40;99865.63;;;9.14;100.00
59103;BME280;43999;51.660;5.616;2023-10-31T08:11:28;99873.91;;;9.21;100.00
59103;BME280;43999;51.660;5.616;2023-10-31T08:14:16;99868.56;;;9.22;100.00
59103;BME280;43999;51.660;5.616;2023-10-31T08:17:04;99877.06;;;9.26;100.00
59103;BME280;43999;51.660;5.616;2023-10-31T08:19:52;99881.06;;;9.31;100.00
59103;BME280;43999;51.660;5.616;2023-10-31T08:22:40;99879.72;;;9.39;100.00
59103;BME280;43999;51.660;5.616;2023-10-31T08:25:30;99882.69;;;9.47;100.00
59103;BME280;43999;51.660;5.616;2023-10-31T08:28:18;99877.88;;;9.54;100.00
59103;BME280;43999;51.660;5.616;2023-10-31T08:31:06;99880.84;;;9.62;100.00
59103;BME280;43999;51.660;5.616;2023-10-31T08:33:54;99890.06;;;9.67;100.00
59103;BME280;43999;51.660;5.616;2023-10-31T08:36:42;99877.50;;;9.73;100.00
59103;BME280;43999;51.660;5.616;2023-10-31T08:39:30;99895.31;;;9.80;100.00
59103;BME280;43999;51.660;5.616;2023-10-31T08:42:18;99896.81;;;9.84;100.00
59103;BME280;43999;51.660;5.616;2023-10-31T08:45:08;99903.22;;;9.93;100.00
59103;BME280;43999;51.660;5.616;2023-10-31T08:47:57;99899.44;;;9.97;100.00
59103;BME280;43999;51.660;5.616;2023-10-31T08:50:45;99894.97;;;9.99;100.00
59103;BME280;43999;51.660;5.616;2023-10-31T08:53:33;99908.38;;;10.08;100.00
59103;BME280;43999;51.660;5.616;2023-10-31T08:56:21;99908.28;;;10.09;100.00
59103;BME280;43999;51.660;5.616;2023-10-31T08:59:09;99917.31;;;10.18;100.00
59103;BME280;43999;51.660;5.616;2023-10-31T09:01:57;99916.22;;;10.20;100.00
59103;BME280;43999;51.660;5.616;2023-10-31T09:04:45;99926.28;;;10.27;100.00
59103;BME280;43999;51.660;5.616;2023-10-31T09:07:33;99930.41;;;10.31;100.00
59103;BME280;43999;51.660;5.616;2023-10-31T09:10:21;99928.22;;;10.37;100.00
59103;BME280;43999;51.660;5.616;2023-10-31T09:13:09;99929.72;;;10.42;100.00
59103;BME280;43999;51.660;5.616;2023-10-31T09:15:59;99941.66;;;10.46;100.00
59103;BME280;43999;51.660;5.616;2023-10-31T09:18:47;99940.81;;;10.45;100.00
59103;BME280;43999;51.660;5.616;2023-10-31T09:21:36;99949.31;;;10.49;100.00
59103;BME280;43999;51.660;5.616;2023-10-31T09:24:24;99952.25;;;10.44;100.00
59103;BME280;43999;51.660;5.616;2023-10-31T09:27:12;99955.06;;;10.41;100.00
59103;BME280;43999;51.660;5.616;2023-10-31T09:30:00;99955.91;;;10.42;100.00
59103;BME280;43999;51.660;5.616;2023-10-31T09:32:48;99958.50;;;10.42;100.00
59103;BME280;43999;51.660;5.616;2023-10-31T09:35:36;99963.44;;;10.46;100.00
59103;BME280;43999;51.660;5.616;2023-10-31T09:38:24;99972.34;;;10.56;100.00
59103;BME280;43999;51.660;5.616;2023-10-31T09:41:13;99976.53;;;10.59;100.00
59103;BME280;43999;51.660;5.616;2023-10-31T09:44:02;99976.75;;;10.69;100.00
59103;BME280;43999;51.660;5.616;2023-10-31T09:46:52;99974.56;;;10.75;100.00
59103;BME280;43999;51.660;5.616;2023-10-31T09:49:41;99980.31;;;10.81;100.00
59103;BME280;43999;51.660;5.616;2023-10-31T09:52:29;99984.41;;;10.85;100.00
59103;BME280;43999;51.660;5.616;2023-10-31T09:55:17;99994.47;;;10.91;100.00
59103;BME280;43999;51.660;5.616;2023-10-31T09:58:07;100005.91;;;10.90;100.00
59103;BME280;43999;51.660;5.616;2023-10-31T10:00:55;99997.41;;;10.86;100.00
59103;BME280;43999;51.660;5.616;2023-10-31T10:03:43;100007.16;;;10.84;100.00
59103;BME280;43999;51.660;5.616;2023-10-31T10:06:32;100016.28;;;10.79;100.00
59103;BME280;43999;51.660;5.616;2023-10-31T10:09:21;100025.38;;;10.73;100.00
59103;BME280;43999;51.660;5.616;2023-10-31T10:12:12;100022.97;;;10.70;100.00
59103;BME280;43999;51.660;5.616;2023-10-31T10:15:00;100032.22;;;10.75;100.00
59103;BME280;43999;51.660;5.616;2023-10-31T10:17:50;100034.63;;;10.79;100.00
59103;BME280;43999;51.660;5.616;2023-10-31T10:20:55;100043.31;;;10.79;100.00
59103;BME280;43999;51.660;5.616;2023-10-31T10:23:43;100047.06;;;10.75;100.00
59103;BME280;43999;51.660;5.616;2023-10-31T10:26:35;100043.09;;;10.69;100.00
59103;BME280;43999;51.660;5.616;2023-10-31T10:29:24;100055.44;;;10.67;100.00
59103;BME280;43999;51.660;5.616;2023-10-31T10:32:14;100054.81;;;10.64;100.00
59103;BME280;43999;51.660;5.616;2023-10-31T10:35:02;100060.06;;;10.64;100.00
59103;BME280;43999;51.660;5.616;2023-10-31T10:37:54;100064.38;;;10.65;100.00
59103;BME280;43999;51.660;5.616;2023-10-31T10:40:44;100052.31;;;10.62;100.00
59103;BME280;43999;51.660;5.616;2023-10-31T10:43:37;100060.88;;;10.64;100.00
59103;BME280;43999;51.660;5.616;2023-10-31T10:46:29;100065.09;;;10.67;100.00
59103;BME280;43999;51.660;5.616;2023-10-31T10:49:24;100075.16;;;10.73;100.00
59103;BME280;43999;51.660;5.616;2023-10-31T10:55:26;100065.75;;;10.96;100.00
59103;BME280;43999;51.660;5.616;2023-10-31T10:58:30;100064.91;;;11.21;100.00
59103;BME280;43999;51.660;5.616;2023-10-31T11:01:21;100073.41;;;11.38;100.00
59103;BME280;43999;51.660;5.616;2023-10-31T11:04:10;100072.84;;;11.58;100.00
59103;BME280;43999;51.660;5.616;2023-10-31T11:07:01;100069.25;;;11.72;100.00
59103;BME280;43999;51.660;5.616;2023-10-31T11:09:50;100071.44;;;11.78;100.00
59103;BME280;43999;51.660;5.616;2023-10-31T11:12:38;100068.16;;;11.88;100.00
59103;BME280;43999;51.660;5.616;2023-10-31T11:15:28;100082.47;;;11.96;100.00
59103;BME280;43999;51.660;5.616;2023-10-31T11:18:16;100084.09;;;11.97;100.00
59103;BME280;43999;51.660;5.616;2023-10-31T11:21:05;100081.06;;;11.91;100.00
59103;BME280;43999;51.660;5.616;2023-10-31T11:24:00;100081.59;;;11.83;100.00
59103;BME280;43999;51.660;5.616;2023-10-31T11:26:53;100086.47;;;11.76;100.00
59103;BME280;43999;51.660;5.616;2023-10-31T11:29:41;100095.38;;;11.74;100.00
59103;BME280;43999;51.660;5.616;2023-10-31T11:32:31;100094.44;;;11.75;100.00
59103;BME280;43999;51.660;5.616;2023-10-31T11:35:19;100098.88;;;11.74;100.00
59103;BME280;43999;51.660;5.616;2023-10-31T11:38:10;100089.75;;;11.67;100.00
59103;BME280;43999;51.660;5.616;2023-10-31T11:41:01;100095.09;;;11.65;100.00
59103;BME280;43999;51.660;5.616;2023-10-31T11:43:50;100098.88;;;11.61;100.00
59103;BME280;43999;51.660;5.616;2023-10-31T11:46:39;100095.63;;;11.58;100.00
59103;BME280;43999;51.660;5.616;2023-10-31T11:49:54;100104.44;;;11.57;100.00
59103;BME280;43999;51.660;5.616;2023-10-31T11:52:42;100104.22;;;11.60;100.00
59103;BME280;43999;51.660;5.616;2023-10-31T11:55:34;100103.81;;;11.66;100.00
59103;BME280;43999;51.660;5.616;2023-10-31T11:58:24;100105.38;;;11.69;100.00
59103;BME280;43999;51.660;5.616;2023-10-31T12:01:13;100106.84;;;11.73;100.00
59103;BME280;43999;51.660;5.616;2023-10-31T12:04:01;100097.72;;;11.65;100.00
59103;BME280;43999;51.660;5.616;2023-10-31T12:07:00;100102.03;;;11.66;100.00
59103;BME280;43999;51.660;5.616;2023-10-31T12:09:49;100109.03;;;11.79;100.00
59103;BME280;43999;51.660;5.616;2023-10-31T12:12:37;100118.88;;;11.88;100.00
59103;BME280;43999;51.660;5.616;2023-10-31T12:15:25;100117.22;;;11.87;100.00
59103;BME280;43999;51.660;5.616;2023-10-31T12:18:14;100128.03;;;11.82;100.00
59103;BME280;43999;51.660;5.616;2023-10-31T12:21:02;100133.28;;;11.82;100.00
59103;BME280;43999;51.660;5.616;2023-10-31T12:23:51;100130.56;;;11.84;100.00
59103;BME280;43999;51.660;5.616;2023-10-31T12:26:42;100132.75;;;11.90;100.00
59103;BME280;43999;51.660;5.616;2023-10-31T12:29:31;100119.50;;;11.92;100.00
59103;BME280;43999;51.660;5.616;2023-10-31T12:32:19;100116.13;;;11.90;100.00
59103;BME280;43999;51.660;5.616;2023-10-31T12:35:12;100122.88;;;11.94;100.00
59103;BME280;43999;51.660;5.616;2023-10-31T12:38:03;100121.38;;;11.90;100.00
59103;BME280;43999;51.660;5.616;2023-10-31T12:40:52;100124.22;;;11.87;100.00
59103;BME280;43999;51.660;5.616;2023-10-31T12:43:42;100125.81;;;11.89;100.00
59103;BME280;43999;51.660;5.616;2023-10-31T12:46:33;100120.88;;;11.97;100.00
59103;BME280;43999;51.660;5.616;2023-10-31T12:49:23;100120.09;;;12.08;100.00
59103;BME280;43999;51.660;5.616;2023-10-31T12:52:11;100122.16;;;12.29;100.00
59103;BME280;43999;51.660;5.616;2023-10-31T12:55:15;100121.44;;;12.62;100.00
59103;BME280;43999;51.660;5.616;2023-10-31T12:58:06;100121.28;;;12.77;100.00
59103;BME280;43999;51.660;5.616;2023-10-31T13:00:58;100118.81;;;12.86;100.00
59103;BME280;43999;51.660;5.616;2023-10-31T13:03:50;100110.00;;;12.99;100.00
59103;BME280;43999;51.660;5.616;2023-10-31T13:06:54;100123.13;;;12.99;100.00
59103;BME280;43999;51.660;5.616;2023-10-31T13:09:42;100119.16;;;12.93;100.00
59103;BME280;43999;51.660;5.616;2023-10-31T13:12:31;100122.13;;;12.88;100.00
59103;BME280;43999;51.660;5.616;2023-10-31T13:15:20;100118.81;;;12.86;100.00
59103;BME280;43999;51.660;5.616;2023-10-31T13:18:10;100126.91;;;12.83;100.00
59103;BME280;43999;51.660;5.616;2023-10-31T13:20:59;100122.88;;;12.90;100.00
59103;BME280;43999;51.660;5.616;2023-10-31T13:23:48;100124.19;;;12.96;100.00
59103;BME280;43999;51.660;5.616;2023-10-31T13:26:36;100122.19;;;13.00;100.00
59103;BME280;43999;51.660;5.616;2023-10-31T13:29:24;100128.41;;;12.99;100.00
59103;BME280;43999;51.660;5.616;2023-10-31T13:32:13;100131.25;;;12.96;100.00
59103;BME280;43999;51.660;5.616;2023-10-31T13:35:01;100128.97;;;12.91;100.00
59103;BME280;43999;51.660;5.616;2023-10-31T13:37:50;100124.28;;;12.83;100.00
59103;BME280;43999;51.660;5.616;2023-10-31T13:40:38;100133.13;;;12.82;100.00
59103;BME280;43999;51.660;5.616;2023-10-31T13:43:27;100137.31;;;12.85;100.00
59103;BME280;43999;51.660;5.616;2023-10-31T13:46:15;100138.00;;;12.76;100.00
59103;BME280;43999;51.660;5.616;2023-10-31T13:49:03;100134.13;;;12.68;100.00
59103;BME280;43999;51.660;5.616;2023-10-31T13:51:51;100133.75;;;12.62;100.00
59103;BME280;43999;51.660;5.616;2023-10-31T13:54:39;100130.13;;;12.51;100.00
59103;BME280;43999;51.660;5.616;2023-10-31T13:57:27;100141.94;;;12.46;100.00
59103;BME280;43999;51.660;5.616;2023-10-31T14:00:15;100130.41;;;12.35;100.00
59103;BME280;43999;51.660;5.616;2023-10-31T14:03:03;100136.00;;;12.31;100.00
59103;BME280;43999;51.660;5.616;2023-10-31T14:05:52;100138.41;;;12.34;100.00
59103;BME280;43999;51.660;5.616;2023-10-31T14:08:40;100133.97;;;12.34;100.00
59103;BME280;43999;51.660;5.616;2023-10-31T14:11:28;100138.53;;;12.32;100.00
59103;BME280;43999;51.660;5.616;2023-10-31T14:14:18;100137.91;;;12.29;100.00
59103;BME280;43999;51.660;5.616;2023-10-31T14:17:09;100151.50;;;12.23;100.00
59103;BME280;43999;51.660;5.616;2023-10-31T14:19:59;100145.69;;;12.17;100.00
59103;BME280;43999;51.660;5.616;2023-10-31T14:22:49;100156.66;;;12.11;100.00
59103;BME280;43999;51.660;5.616;2023-10-31T14:25:37;100166.44;;;12.09;100.00
59103;BME280;43999;51.660;5.616;2023-10-31T14:28:28;100162.22;;;12.07;100.00
59103;BME280;43999;51.660;5.616;2023-10-31T14:31:16;100166.03;;;12.02;100.00
59103;BME280;43999;51.660;5.616;2023-10-31T14:34:04;100166.38;;;11.98;100.00
59103;BME280;43999;51.660;5.616;2023-10-31T14:36:53;100176.13;;;11.96;100.00
59103;BME280;43999;51.660;5.616;2023-10-31T14:39:41;100172.00;;;11.92;100.00
59103;BME280;43999;51.660;5.616;2023-10-31T14:42:29;100169.00;;;11.85;100.00
59103;BME280;43999;51.660;5.616;2023-10-31T14:45:17;100168.56;;;11.78;100.00
59103;BME280;43999;51.660;5.616;2023-10-31T14:48:06;100177.19;;;11.80;100.00
59103;BME280;43999;51.660;5.616;2023-10-31T14:50:54;100177.28;;;11.79;100.00